sensor_id;sensor_type;location;lat;lon;timestamp;P1;durP1;ratioP1;P2;durP2;ratioP2
20004;SDS011;69160;45.498;-73.582;2023-04-22T00:00:52;3.40;;;1.80;;
20004;SDS011;69160;45.498;-73.582;2023-04-22T00:03:19;3.93;;;2.00;;
20004;SDS011;69160;45.498;-73.582;2023-04-22T00:05:46;4.10;;;1.60;;
20004;SDS011;69160;45.498;-73.582;2023-04-22T00:08:13;2.23;;;1.57;;
20004;SDS011;69160;45.498;-73.582;2023-04-22T00:10:39;3.83;;;1.63;;
20004;SDS011;69160;45.498;-73.582;2023-04-22T00:13:05;3.30;;;1.40;;
20004;SDS011;69160;45.498;-73.582;2023-04-22T00:15:31;5.80;;;1.73;;
20004;SDS011;69160;45.498;-73.582;2023-04-22T00:17:58;3.30;;;1.77;;
20004;SDS011;69160;45.498;-73.582;2023-04-22T00:20:24;2.53;;;1.30;;
20004;SDS011;69160;45.498;-73.582;2023-04-22T00:22:50;4.00;;;1.50;;
20004;SDS011;69160;45.498;-73.582;2023-04-22T00:25:16;1.53;;;1.20;;
20004;SDS011;69160;45.498;-73.582;2023-04-22T00:27:43;2.10;;;1.10;;
20004;SDS011;69160;45.498;-73.582;2023-04-22T00:30:09;2.27;;;1.27;;
20004;SDS011;69160;45.498;-73.582;2023-04-22T00:32:36;1.73;;;1.13;;
20004;SDS011;69160;45.498;-73.582;2023-04-22T00:35:02;2.60;;;1.40;;
20004;SDS011;69160;45.498;-73.582;2023-04-22T00:37:29;2.47;;;1.33;;
20004;SDS011;69160;45.498;-73.582;2023-04-22T00:39:55;2.23;;;1.50;;
20004;SDS011;69160;45.498;-73.582;2023-04-22T00:42:22;1.73;;;1.40;;
20004;SDS011;69160;45.498;-73.582;2023-04-22T00:44:48;1.67;;;1.03;;
20004;SDS011;69160;45.498;-73.582;2023-04-22T00:47:16;2.37;;;1.27;;
20004;SDS011;69160;45.498;-73.582;2023-04-22T00:49:43;4.80;;;1.07;;
20004;SDS011;69160;45.498;-73.582;2023-04-22T00:52:09;6.53;;;1.10;;
20004;SDS011;69160;45.498;-73.582;2023-04-22T00:54:35;3.17;;;1.30;;
20004;SDS011;69160;45.498;-73.582;2023-04-22T00:57:02;1.60;;;1.07;;
20004;SDS011;69160;45.498;-73.582;2023-04-22T00:59:29;2.23;;;1.40;;
20004;SDS011;69160;45.498;-73.582;2023-04-22T01:01:55;2.27;;;1.30;;
20004;SDS011;69160;45.498;-73.582;2023-04-22T01:04:22;2.90;;;1.30;;
20004;SDS011;69160;45.498;-73.582;2023-04-22T01:06:50;2.10;;;1.43;;
20004;SDS011;69160;45.498;-73.582;2023-04-22T01:09:18;2.93;;;1.00;;
20004;SDS011;69160;45.498;-73.582;2023-04-22T01:11:45;2.40;;;1.23;;
20004;SDS011;69160;45.498;-73.582;2023-04-22T01:14:12;2.10;;;1.30;;
20004;SDS011;69160;45.498;-73.582;2023-04-22T01:16:38;1.93;;;1.20;;
20004;SDS011;69160;45.498;-73.582;2023-04-22T01:19:07;3.27;;;1.20;;
20004;SDS011;69160;45.498;-73.582;2023-04-22T01:21:34;2.50;;;1.33;;
20004;SDS011;69160;45.498;-73.582;2023-04-22T01:24:03;2.07;;;1.20;;
20004;SDS011;69160;45.498;-73.582;2023-04-22T01:26:29;1.97;;;1.20;;
20004;SDS011;69160;45.498;-73.582;2023-04-22T01:28:56;2.50;;;1.10;;
20004;SDS011;69160;45.498;-73.582;2023-04-22T01:31:22;2.17;;;1.30;;
20004;SDS011;69160;45.498;-73.582;2023-04-22T01:33:49;1.30;;;1.20;;
20004;SDS011;69160;45.498;-73.582;2023-04-22T01:36:15;1.10;;;1.00;;
20004;SDS011;69160;45.498;-73.582;2023-04-22T01:38:42;1.57;;;1.07;;
20004;SDS011;69160;45.498;-73.582;2023-04-22T01:41:08;1.00;;;0.70;;
20004;SDS011;69160;45.498;-73.582;2023-04-22T01:43:34;4.20;;;1.33;;
20004;SDS011;69160;45.498;-73.582;2023-04-22T01:46:01;1.77;;;1.47;;
20004;SDS011;69160;45.498;-73.582;2023-04-22T01:48:29;1.93;;;0.90;;
20004;SDS011;69160;45.498;-73.582;2023-04-22T01:50:55;1.53;;;0.93;;
20004;SDS011;69160;45.498;-73.582;2023-04-22T01:53:21;1.77;;;1.00;;
20004;SDS011;69160;45.498;-73.582;2023-04-22T01:55:47;1.30;;;1.10;;
20004;SDS011;69160;45.498;-73.582;2023-04-22T01:58:14;1.43;;;1.30;;
20004;SDS011;69160;45.498;-73.582;2023-04-22T02:00:40;2.33;;;1.10;;
20004;SDS011;69160;45.498;-73.582;2023-04-22T02:03:06;0.80;;;0.80;;
20004;SDS011;69160;45.498;-73.582;2023-04-22T02:05:32;1.57;;;1.23;;
20004;SDS011;69160;45.498;-73.582;2023-04-22T02:07:58;2.00;;;1.50;;
20004;SDS011;69160;45.498;-73.582;2023-04-22T02:10:24;1.93;;;1.10;;
20004;SDS011;69160;45.498;-73.582;2023-04-22T02:12:51;3.43;;;1.13;;
20004;SDS011;69160;45.498;-73.582;2023-04-22T02:15:17;1.30;;;1.10;;
20004;SDS011;69160;45.498;-73.582;2023-04-22T02:17:43;1.30;;;1.10;;
20004;SDS011;69160;45.498;-73.582;2023-04-22T02:20:10;2.40;;;1.17;;
20004;SDS011;69160;45.498;-73.582;2023-04-22T02:22:37;1.73;;;1.20;;
20004;SDS011;69160;45.498;-73.582;2023-04-22T02:25:05;1.23;;;1.13;;
20004;SDS011;69160;45.498;-73.582;2023-04-22T02:27:32;1.57;;;1.37;;
20004;SDS011;69160;45.498;-73.582;2023-04-22T02:29:58;2.50;;;1.37;;
20004;SDS011;69160;45.498;-73.582;2023-04-22T02:32:25;2.03;;;1.20;;
20004;SDS011;69160;45.498;-73.582;2023-04-22T02:34:51;1.57;;;1.10;;
20004;SDS011;69160;45.498;-73.582;2023-04-22T02:37:17;2.27;;;1.10;;
20004;SDS011;69160;45.498;-73.582;2023-04-22T02:39:44;1.60;;;1.07;;
20004;SDS011;69160;45.498;-73.582;2023-04-22T02:42:11;1.63;;;1.17;;
20004;SDS011;69160;45.498;-73.582;2023-04-22T02:44:37;1.00;;;0.90;;
20004;SDS011;69160;45.498;-73.582;2023-04-22T02:47:03;1.30;;;1.10;;
20004;SDS011;69160;45.498;-73.582;2023-04-22T02:49:30;1.77;;;1.17;;
20004;SDS011;69160;45.498;-73.582;2023-04-22T02:51:56;2.10;;;1.37;;
20004;SDS011;69160;45.498;-73.582;2023-04-22T02:54:22;2.33;;;1.10;;
20004;SDS011;69160;45.498;-73.582;2023-04-22T02:56:49;1.87;;;1.07;;
20004;SDS011;69160;45.498;-73.582;2023-04-22T02:59:15;1.77;;;1.20;;
20004;SDS011;69160;45.498;-73.582;2023-04-22T03:01:41;4.10;;;1.40;;
20004;SDS011;69160;45.498;-73.582;2023-04-22T03:04:07;1.97;;;1.30;;
20004;SDS011;69160;45.498;-73.582;2023-04-22T03:06:36;1.43;;;1.10;;
20004;SDS011;69160;45.498;-73.582;2023-04-22T03:09:02;1.83;;;1.20;;
20004;SDS011;69160;45.498;-73.582;2023-04-22T03:11:28;3.30;;;1.50;;
20004;SDS011;69160;45.498;-73.582;2023-04-22T03:13:54;1.67;;;1.20;;
20004;SDS011;69160;45.498;-73.582;2023-04-22T03:16:23;3.47;;;1.27;;
20004;SDS011;69160;45.498;-73.582;2023-04-22T03:18:50;1.73;;;1.20;;
20004;SDS011;69160;45.498;-73.582;2023-04-22T03:21:16;2.00;;;1.20;;
20004;SDS011;69160;45.498;-73.582;2023-04-22T03:23:42;1.93;;;1.20;;
20004;SDS011;69160;45.498;-73.582;2023-04-22T03:26:08;1.50;;;1.13;;
20004;SDS011;69160;45.498;-73.582;2023-04-22T03:28:35;1.30;;;1.13;;
20004;SDS011;69160;45.498;-73.582;2023-04-22T03:31:01;2.50;;;1.40;;
20004;SDS011;69160;45.498;-73.582;2023-04-22T03:33:27;2.73;;;1.60;;
20004;SDS011;69160;45.498;-73.582;2023-04-22T03:35:53;2.63;;;1.20;;
20004;SDS011;69160;45.498;-73.582;2023-04-22T03:38:20;1.37;;;1.00;;
20004;SDS011;69160;45.498;-73.582;2023-04-22T03:40:46;3.10;;;1.37;;
20004;SDS011;69160;45.498;-73.582;2023-04-22T03:43:12;1.93;;;1.10;;
20004;SDS011;69160;45.498;-73.582;2023-04-22T03:45:38;2.43;;;1.30;;
20004;SDS011;69160;45.498;-73.582;2023-04-22T03:48:04;1.47;;;1.20;;
20004;SDS011;69160;45.498;-73.582;2023-04-22T03:50:31;2.07;;;1.00;;
20004;SDS011;69160;45.498;-73.582;2023-04-22T03:52:57;3.00;;;1.60;;
20004;SDS011;69160;45.498;-73.582;2023-04-22T03:55:23;1.60;;;1.17;;
20004;SDS011;69160;45.498;-73.582;2023-04-22T03:57:49;2.23;;;1.30;;
20004;SDS011;69160;45.498;-73.582;2023-04-22T04:00:16;1.13;;;1.03;;
20004;SDS011;69160;45.498;-73.582;2023-04-22T04:02:42;1.93;;;1.03;;
20004;SDS011;69160;45.498;-73.582;2023-04-22T04:05:08;1.37;;;1.03;;
20004;SDS011;69160;45.498;-73.582;2023-04-22T04:07:35;1.20;;;1.10;;
20004;SDS011;69160;45.498;-73.582;2023-04-22T04:10:02;1.47;;;1.03;;
20004;SDS011;69160;45.498;-73.582;2023-04-22T04:12:28;1.97;;;1.30;;
20004;SDS011;69160;45.498;-73.582;2023-04-22T04:14:54;4.10;;;1.50;;
20004;SDS011;69160;45.498;-73.582;2023-04-22T04:17:21;4.93;;;1.40;;
20004;SDS011;69160;45.498;-73.582;2023-04-22T04:19:52;3.60;;;1.10;;
20004;SDS011;69160;45.498;-73.582;2023-04-22T04:22:19;1.37;;;1.07;;
20004;SDS011;69160;45.498;-73.582;2023-04-22T04:24:46;1.80;;;1.10;;
20004;SDS011;69160;45.498;-73.582;2023-04-22T04:27:12;2.50;;;1.00;;
20004;SDS011;69160;45.498;-73.582;2023-04-22T04:29:39;2.30;;;1.20;;
20004;SDS011;69160;45.498;-73.582;2023-04-22T04:32:09;3.10;;;1.30;;
20004;SDS011;69160;45.498;-73.582;2023-04-22T04:34:35;3.40;;;1.30;;
20004;SDS011;69160;45.498;-73.582;2023-04-22T04:37:04;1.77;;;1.30;;
20004;SDS011;69160;45.498;-73.582;2023-04-22T04:39:30;1.87;;;1.40;;
20004;SDS011;69160;45.498;-73.582;2023-04-22T04:41:57;2.60;;;1.30;;
20004;SDS011;69160;45.498;-73.582;2023-04-22T04:44:24;1.70;;;1.10;;
20004;SDS011;69160;45.498;-73.582;2023-04-22T04:46:51;2.70;;;1.30;;
20004;SDS011;69160;45.498;-73.582;2023-04-22T04:49:19;2.13;;;1.20;;
20004;SDS011;69160;45.498;-73.582;2023-04-22T04:51:45;1.30;;;1.13;;
20004;SDS011;69160;45.498;-73.582;2023-04-22T04:54:11;1.93;;;1.33;;
20004;SDS011;69160;45.498;-73.582;2023-04-22T04:56:37;2.43;;;1.13;;
20004;SDS011;69160;45.498;-73.582;2023-04-22T04:59:04;2.90;;;1.10;;
20004;SDS011;69160;45.498;-73.582;2023-04-22T05:01:30;2.00;;;1.23;;
20004;SDS011;69160;45.498;-73.582;2023-04-22T05:03:56;3.60;;;0.90;;
20004;SDS011;69160;45.498;-73.582;2023-04-22T05:06:22;2.17;;;1.17;;
20004;SDS011;69160;45.498;-73.582;2023-04-22T05:08:48;1.30;;;0.90;;
20004;SDS011;69160;45.498;-73.582;2023-04-22T05:11:14;2.47;;;1.40;;
20004;SDS011;69160;45.498;-73.582;2023-04-22T05:13:41;1.13;;;1.03;;
20004;SDS011;69160;45.498;-73.582;2023-04-22T05:16:07;1.30;;;1.20;;
20004;SDS011;69160;45.498;-73.582;2023-04-22T05:18:33;1.93;;;1.37;;
20004;SDS011;69160;45.498;-73.582;2023-04-22T05:20:59;2.03;;;1.30;;
20004;SDS011;69160;45.498;-73.582;2023-04-22T05:23:28;1.40;;;1.10;;
20004;SDS011;69160;45.498;-73.582;2023-04-22T05:25:55;2.70;;;1.20;;
20004;SDS011;69160;45.498;-73.582;2023-04-22T05:28:21;2.00;;;1.40;;
20004;SDS011;69160;45.498;-73.582;2023-04-22T05:30:48;1.73;;;1.10;;
20004;SDS011;69160;45.498;-73.582;2023-04-22T05:33:14;1.70;;;1.20;;
20004;SDS011;69160;45.498;-73.582;2023-04-22T05:35:40;1.73;;;1.37;;
20004;SDS011;69160;45.498;-73.582;2023-04-22T05:38:07;1.80;;;1.37;;
20004;SDS011;69160;45.498;-73.582;2023-04-22T05:40:33;1.47;;;1.07;;
20004;SDS011;69160;45.498;-73.582;2023-04-22T05:42:59;2.73;;;1.20;;
20004;SDS011;69160;45.498;-73.582;2023-04-22T05:45:25;2.10;;;1.20;;
20004;SDS011;69160;45.498;-73.582;2023-04-22T05:47:51;1.27;;;1.17;;
20004;SDS011;69160;45.498;-73.582;2023-04-22T05:50:18;1.80;;;1.40;;
20004;SDS011;69160;45.498;-73.582;2023-04-22T05:52:44;1.20;;;1.00;;
20004;SDS011;69160;45.498;-73.582;2023-04-22T05:55:10;1.97;;;1.20;;
20004;SDS011;69160;45.498;-73.582;2023-04-22T05:57:36;2.60;;;1.40;;
20004;SDS011;69160;45.498;-73.582;2023-04-22T06:00:03;1.60;;;1.20;;
20004;SDS011;69160;45.498;-73.582;2023-04-22T06:02:29;2.60;;;1.73;;
20004;SDS011;69160;45.498;-73.582;2023-04-22T06:04:55;1.40;;;1.20;;
20004;SDS011;69160;45.498;-73.582;2023-04-22T06:07:22;2.37;;;1.50;;
20004;SDS011;69160;45.498;-73.582;2023-04-22T06:09:48;2.67;;;1.50;;
20004;SDS011;69160;45.498;-73.582;2023-04-22T06:12:15;1.83;;;1.27;;
20004;SDS011;69160;45.498;-73.582;2023-04-22T06:14:41;1.97;;;1.30;;
20004;SDS011;69160;45.498;-73.582;2023-04-22T06:17:07;1.73;;;1.20;;
20004;SDS011;69160;45.498;-73.582;2023-04-22T06:19:33;2.90;;;1.67;;
20004;SDS011;69160;45.498;-73.582;2023-04-22T06:22:00;5.23;;;1.73;;
20004;SDS011;69160;45.498;-73.582;2023-04-22T06:24:26;1.77;;;1.30;;
20004;SDS011;69160;45.498;-73.582;2023-04-22T06:26:52;1.80;;;1.30;;
20004;SDS011;69160;45.498;-73.582;2023-04-22T06:29:18;3.77;;;1.73;;
20004;SDS011;69160;45.498;-73.582;2023-04-22T06:31:44;2.17;;;1.57;;
20004;SDS011;69160;45.498;-73.582;2023-04-22T06:34:10;2.50;;;1.50;;
20004;SDS011;69160;45.498;-73.582;2023-04-22T06:36:36;3.37;;;1.90;;
20004;SDS011;69160;45.498;-73.582;2023-04-22T06:39:03;2.10;;;1.50;;
20004;SDS011;69160;45.498;-73.582;2023-04-22T06:41:30;2.37;;;1.43;;
20004;SDS011;69160;45.498;-73.582;2023-04-22T06:43:59;1.33;;;1.20;;
20004;SDS011;69160;45.498;-73.582;2023-04-22T06:46:26;1.53;;;1.30;;
20004;SDS011;69160;45.498;-73.582;2023-04-22T06:48:52;3.83;;;2.20;;
20004;SDS011;69160;45.498;-73.582;2023-04-22T06:51:18;5.80;;;1.40;;
20004;SDS011;69160;45.498;-73.582;2023-04-22T06:53:44;3.30;;;1.90;;
20004;SDS011;69160;45.498;-73.582;2023-04-22T06:56:10;2.47;;;1.50;;
20004;SDS011;69160;45.498;-73.582;2023-04-22T06:58:37;1.93;;;1.40;;
20004;SDS011;69160;45.498;-73.582;2023-04-22T07:01:03;2.03;;;1.57;;
20004;SDS011;69160;45.498;-73.582;2023-04-22T07:03:29;2.40;;;1.57;;
20004;SDS011;69160;45.498;-73.582;2023-04-22T07:05:55;3.03;;;1.63;;
20004;SDS011;69160;45.498;-73.582;2023-04-22T07:08:21;2.87;;;1.30;;
20004;SDS011;69160;45.498;-73.582;2023-04-22T07:10:48;2.73;;;1.40;;
20004;SDS011;69160;45.498;-73.582;2023-04-22T07:13:14;2.10;;;1.50;;
20004;SDS011;69160;45.498;-73.582;2023-04-22T07:15:40;5.20;;;1.43;;
20004;SDS011;69160;45.498;-73.582;2023-04-22T07:18:06;1.90;;;1.50;;
20004;SDS011;69160;45.498;-73.582;2023-04-22T07:20:32;2.20;;;1.53;;
20004;SDS011;69160;45.498;-73.582;2023-04-22T07:22:58;2.73;;;1.30;;
20004;SDS011;69160;45.498;-73.582;2023-04-22T07:25:25;2.17;;;1.57;;
20004;SDS011;69160;45.498;-73.582;2023-04-22T07:27:51;2.07;;;1.30;;
20004;SDS011;69160;45.498;-73.582;2023-04-22T07:30:17;2.60;;;1.30;;
20004;SDS011;69160;45.498;-73.582;2023-04-22T07:32:43;2.30;;;1.53;;
20004;SDS011;69160;45.498;-73.582;2023-04-22T07:35:09;1.47;;;1.33;;
20004;SDS011;69160;45.498;-73.582;2023-04-22T07:37:35;1.30;;;1.20;;
20004;SDS011;69160;45.498;-73.582;2023-04-22T07:40:02;1.90;;;1.33;;
20004;SDS011;69160;45.498;-73.582;2023-04-22T07:42:28;1.93;;;1.60;;
20004;SDS011;69160;45.498;-73.582;2023-04-22T07:44:54;4.20;;;1.43;;
20004;SDS011;69160;45.498;-73.582;2023-04-22T07:47:20;2.80;;;1.70;;
20004;SDS011;69160;45.498;-73.582;2023-04-22T07:49:46;3.67;;;1.40;;
20004;SDS011;69160;45.498;-73.582;2023-04-22T07:52:13;3.47;;;1.30;;
20004;SDS011;69160;45.498;-73.582;2023-04-22T07:54:39;3.07;;;1.67;;
20004;SDS011;69160;45.498;-73.582;2023-04-22T07:57:05;1.90;;;1.37;;
20004;SDS011;69160;45.498;-73.582;2023-04-22T07:59:31;2.00;;;1.50;;
20004;SDS011;69160;45.498;-73.582;2023-04-22T08:01:57;1.73;;;1.57;;
20004;SDS011;69160;45.498;-73.582;2023-04-22T08:04:24;2.30;;;1.60;;
20004;SDS011;69160;45.498;-73.582;2023-04-22T08:06:50;1.77;;;1.27;;
20004;SDS011;69160;45.498;-73.582;2023-04-22T08:09:16;2.97;;;1.30;;
20004;SDS011;69160;45.498;-73.582;2023-04-22T08:11:42;3.17;;;1.60;;
20004;SDS011;69160;45.498;-73.582;2023-04-22T08:14:08;2.17;;;1.40;;
20004;SDS011;69160;45.498;-73.582;2023-04-22T08:16:34;2.40;;;1.40;;
20004;SDS011;69160;45.498;-73.582;2023-04-22T08:19:01;3.60;;;1.50;;
20004;SDS011;69160;45.498;-73.582;2023-04-22T08:21:28;2.30;;;1.60;;
20004;SDS011;69160;45.498;-73.582;2023-04-22T08:23:54;3.77;;;1.37;;
20004;SDS011;69160;45.498;-73.582;2023-04-22T08:26:20;2.23;;;1.67;;
20004;SDS011;69160;45.498;-73.582;2023-04-22T08:28:46;1.70;;;1.27;;
20004;SDS011;69160;45.498;-73.582;2023-04-22T08:31:13;2.33;;;1.50;;
20004;SDS011;69160;45.498;-73.582;2023-04-22T08:33:39;1.90;;;1.27;;
20004;SDS011;69160;45.498;-73.582;2023-04-22T08:36:06;2.27;;;1.67;;
20004;SDS011;69160;45.498;-73.582;2023-04-22T08:38:33;2.07;;;1.40;;
20004;SDS011;69160;45.498;-73.582;2023-04-22T08:41:00;2.33;;;1.40;;
20004;SDS011;69160;45.498;-73.582;2023-04-22T08:43:27;1.50;;;1.30;;
20004;SDS011;69160;45.498;-73.582;2023-04-22T08:45:54;2.60;;;1.50;;
20004;SDS011;69160;45.498;-73.582;2023-04-22T08:48:20;2.30;;;1.60;;
20004;SDS011;69160;45.498;-73.582;2023-04-22T08:50:47;3.60;;;1.77;;
20004;SDS011;69160;45.498;-73.582;2023-04-22T08:53:13;1.80;;;1.20;;
20004;SDS011;69160;45.498;-73.582;2023-04-22T08:55:42;2.57;;;1.60;;
20004;SDS011;69160;45.498;-73.582;2023-04-22T08:58:10;2.70;;;1.40;;
20004;SDS011;69160;45.498;-73.582;2023-04-22T09:00:37;2.50;;;1.60;;
20004;SDS011;69160;45.498;-73.582;2023-04-22T09:03:07;2.23;;;1.47;;
20004;SDS011;69160;45.498;-73.582;2023-04-22T09:05:33;1.00;;;0.90;;
20004;SDS011;69160;45.498;-73.582;2023-04-22T09:08:03;2.07;;;1.50;;
20004;SDS011;69160;45.498;-73.582;2023-04-22T09:10:29;2.20;;;1.40;;
20004;SDS011;69160;45.498;-73.582;2023-04-22T09:12:57;3.30;;;1.40;;
20004;SDS011;69160;45.498;-73.582;2023-04-22T09:15:25;2.60;;;1.40;;
20004;SDS011;69160;45.498;-73.582;2023-04-22T09:17:53;2.50;;;1.30;;
20004;SDS011;69160;45.498;-73.582;2023-04-22T09:20:25;1.70;;;1.27;;
20004;SDS011;69160;45.498;-73.582;2023-04-22T09:22:52;1.50;;;1.20;;
20004;SDS011;69160;45.498;-73.582;2023-04-22T09:25:21;2.77;;;1.50;;
20004;SDS011;69160;45.498;-73.582;2023-04-22T09:27:52;2.07;;;1.50;;
20004;SDS011;69160;45.498;-73.582;2023-04-22T09:30:27;2.13;;;1.20;;
20004;SDS011;69160;45.498;-73.582;2023-04-22T09:32:55;1.77;;;1.30;;
20004;SDS011;69160;45.498;-73.582;2023-04-22T09:35:29;2.27;;;1.47;;
20004;SDS011;69160;45.498;-73.582;2023-04-22T09:37:57;1.93;;;1.33;;
20004;SDS011;69160;45.498;-73.582;2023-04-22T09:40:25;2.53;;;1.50;;
20004;SDS011;69160;45.498;-73.582;2023-04-22T09:42:52;1.70;;;1.43;;
20004;SDS011;69160;45.498;-73.582;2023-04-22T09:45:26;2.90;;;1.23;;
20004;SDS011;69160;45.498;-73.582;2023-04-22T09:47:53;2.23;;;1.50;;
20004;SDS011;69160;45.498;-73.582;2023-04-22T09:50:22;1.93;;;1.20;;
20004;SDS011;69160;45.498;-73.582;2023-04-22T09:52:54;2.10;;;1.40;;
20004;SDS011;69160;45.498;-73.582;2023-04-22T09:55:23;2.70;;;1.40;;
20004;SDS011;69160;45.498;-73.582;2023-04-22T09:57:51;1.50;;;1.23;;
20004;SDS011;69160;45.498;-73.582;2023-04-22T10:00:19;2.07;;;1.20;;
20004;SDS011;69160;45.498;-73.582;2023-04-22T10:02:46;1.90;;;1.40;;
20004;SDS011;69160;45.498;-73.582;2023-04-22T10:05:12;2.20;;;1.40;;
20004;SDS011;69160;45.498;-73.582;2023-04-22T10:07:38;1.70;;;1.33;;
20004;SDS011;69160;45.498;-73.582;2023-04-22T10:10:06;1.53;;;1.20;;
20004;SDS011;69160;45.498;-73.582;2023-04-22T10:12:36;2.07;;;1.20;;
20004;SDS011;69160;45.498;-73.582;2023-04-22T10:15:03;1.53;;;1.33;;
20004;SDS011;69160;45.498;-73.582;2023-04-22T10:17:31;2.63;;;1.30;;
20004;SDS011;69160;45.498;-73.582;2023-04-22T10:19:59;3.60;;;1.40;;
20004;SDS011;69160;45.498;-73.582;2023-04-22T10:22:30;2.50;;;1.40;;
20004;SDS011;69160;45.498;-73.582;2023-04-22T10:24:57;1.40;;;1.13;;
20004;SDS011;69160;45.498;-73.582;2023-04-22T10:27:24;2.27;;;1.50;;
20004;SDS011;69160;45.498;-73.582;2023-04-22T10:29:50;2.43;;;1.57;;
20004;SDS011;69160;45.498;-73.582;2023-04-22T10:34:46;2.37;;;1.60;;
20004;SDS011;69160;45.498;-73.582;2023-04-22T10:37:13;2.43;;;1.70;;
20004;SDS011;69160;45.498;-73.582;2023-04-22T10:40:04;2.00;;;1.40;;
20004;SDS011;69160;45.498;-73.582;2023-04-22T10:42:33;1.90;;;1.30;;
20004;SDS011;69160;45.498;-73.582;2023-04-22T10:45:00;1.20;;;1.10;;
20004;SDS011;69160;45.498;-73.582;2023-04-22T10:47:32;3.10;;;1.53;;
20004;SDS011;69160;45.498;-73.582;2023-04-22T10:52:50;2.20;;;1.37;;
20004;SDS011;69160;45.498;-73.582;2023-04-22T10:55:24;1.87;;;1.30;;
20004;SDS011;69160;45.498;-73.582;2023-04-22T10:57:51;1.90;;;1.50;;
20004;SDS011;69160;45.498;-73.582;2023-04-22T11:02:47;3.00;;;1.40;;
20004;SDS011;69160;45.498;-73.582;2023-04-22T11:05:31;2.40;;;1.40;;
20004;SDS011;69160;45.498;-73.582;2023-04-22T11:08:12;3.43;;;1.40;;
20004;SDS011;69160;45.498;-73.582;2023-04-22T11:10:44;2.70;;;1.60;;
20004;SDS011;69160;45.498;-73.582;2023-04-22T11:13:18;3.00;;;1.37;;
20004;SDS011;69160;45.498;-73.582;2023-04-22T11:15:46;2.63;;;1.50;;
20004;SDS011;69160;45.498;-73.582;2023-04-22T11:18:16;2.63;;;1.50;;
20004;SDS011;69160;45.498;-73.582;2023-04-22T11:20:47;2.10;;;1.57;;
20004;SDS011;69160;45.498;-73.582;2023-04-22T11:23:19;2.90;;;1.60;;
20004;SDS011;69160;45.498;-73.582;2023-04-22T11:25:53;1.70;;;1.20;;
20004;SDS011;69160;45.498;-73.582;2023-04-22T11:28:20;2.63;;;1.67;;
20004;SDS011;69160;45.498;-73.582;2023-04-22T11:30:47;2.20;;;1.43;;
20004;SDS011;69160;45.498;-73.582;2023-04-22T11:33:14;2.23;;;1.57;;
20004;SDS011;69160;45.498;-73.582;2023-04-22T11:35:41;1.63;;;1.23;;
20004;SDS011;69160;45.498;-73.582;2023-04-22T11:38:07;2.03;;;1.47;;
20004;SDS011;69160;45.498;-73.582;2023-04-22T11:40:37;2.30;;;1.33;;
20004;SDS011;69160;45.498;-73.582;2023-04-22T11:43:06;2.23;;;1.40;;
20004;SDS011;69160;45.498;-73.582;2023-04-22T11:45:33;2.10;;;1.53;;
20004;SDS011;69160;45.498;-73.582;2023-04-22T11:48:01;1.53;;;1.03;;
20004;SDS011;69160;45.498;-73.582;2023-04-22T11:50:30;2.00;;;1.27;;
20004;SDS011;69160;45.498;-73.582;2023-04-22T11:52:59;1.67;;;1.10;;
20004;SDS011;69160;45.498;-73.582;2023-04-22T11:55:30;1.37;;;1.13;;
20004;SDS011;69160;45.498;-73.582;2023-04-22T11:58:06;2.90;;;1.23;;
20004;SDS011;69160;45.498;-73.582;2023-04-22T12:00:39;2.10;;;1.27;;
20004;SDS011;69160;45.498;-73.582;2023-04-22T12:05:52;1.80;;;1.27;;
20004;SDS011;69160;45.498;-73.582;2023-04-22T12:08:29;2.73;;;1.20;;
20004;SDS011;69160;45.498;-73.582;2023-04-22T12:11:12;1.93;;;1.30;;
20004;SDS011;69160;45.498;-73.582;2023-04-22T12:16:14;1.67;;;1.20;;
20004;SDS011;69160;45.498;-73.582;2023-04-22T12:21:13;2.00;;;1.40;;
20004;SDS011;69160;45.498;-73.582;2023-04-22T12:26:15;1.70;;;1.30;;
20004;SDS011;69160;45.498;-73.582;2023-04-22T12:28:43;1.50;;;1.20;;
20004;SDS011;69160;45.498;-73.582;2023-04-22T12:31:10;1.40;;;1.30;;
20004;SDS011;69160;45.498;-73.582;2023-04-22T12:33:37;2.10;;;1.20;;
20004;SDS011;69160;45.498;-73.582;2023-04-22T12:36:04;1.50;;;1.00;;
20004;SDS011;69160;45.498;-73.582;2023-04-22T12:38:31;1.80;;;1.17;;
20004;SDS011;69160;45.498;-73.582;2023-04-22T12:40:57;2.00;;;1.40;;
20004;SDS011;69160;45.498;-73.582;2023-04-22T12:43:24;2.40;;;1.33;;
20004;SDS011;69160;45.498;-73.582;2023-04-22T12:45:50;3.00;;;1.30;;
20004;SDS011;69160;45.498;-73.582;2023-04-22T12:48:16;1.47;;;1.27;;
20004;SDS011;69160;45.498;-73.582;2023-04-22T12:50:42;2.90;;;1.50;;
20004;SDS011;69160;45.498;-73.582;2023-04-22T12:53:09;5.47;;;1.20;;
20004;SDS011;69160;45.498;-73.582;2023-04-22T12:55:35;1.70;;;1.20;;
20004;SDS011;69160;45.498;-73.582;2023-04-22T12:58:01;2.17;;;1.60;;
20004;SDS011;69160;45.498;-73.582;2023-04-22T13:00:28;2.40;;;1.43;;
20004;SDS011;69160;45.498;-73.582;2023-04-22T13:02:54;1.50;;;1.10;;
20004;SDS011;69160;45.498;-73.582;2023-04-22T13:05:21;1.13;;;1.03;;
20004;SDS011;69160;45.498;-73.582;2023-04-22T13:07:48;7.30;;;1.60;;
20004;SDS011;69160;45.498;-73.582;2023-04-22T13:10:14;4.83;;;1.47;;
20004;SDS011;69160;45.498;-73.582;2023-04-22T13:12:41;3.10;;;1.50;;
20004;SDS011;69160;45.498;-73.582;2023-04-22T13:15:09;8.00;;;1.37;;
20004;SDS011;69160;45.498;-73.582;2023-04-22T13:17:36;2.50;;;1.30;;
20004;SDS011;69160;45.498;-73.582;2023-04-22T13:20:03;3.40;;;1.40;;
20004;SDS011;69160;45.498;-73.582;2023-04-22T13:22:32;3.53;;;1.43;;
20004;SDS011;69160;45.498;-73.582;2023-04-22T13:24:58;6.20;;;2.40;;
20004;SDS011;69160;45.498;-73.582;2023-04-22T13:27:24;8.67;;;3.20;;
20004;SDS011;69160;45.498;-73.582;2023-04-22T13:29:50;8.40;;;2.30;;
20004;SDS011;69160;45.498;-73.582;2023-04-22T13:32:17;8.27;;;2.40;;
20004;SDS011;69160;45.498;-73.582;2023-04-22T13:34:43;3.60;;;2.00;;
20004;SDS011;69160;45.498;-73.582;2023-04-22T13:37:10;5.50;;;2.60;;
20004;SDS011;69160;45.498;-73.582;2023-04-22T13:39:39;8.03;;;2.70;;
20004;SDS011;69160;45.498;-73.582;2023-04-22T13:42:05;14.70;;;5.37;;
20004;SDS011;69160;45.498;-73.582;2023-04-22T13:44:32;8.83;;;3.40;;
20004;SDS011;69160;45.498;-73.582;2023-04-22T13:46:58;16.20;;;3.07;;
20004;SDS011;69160;45.498;-73.582;2023-04-22T13:49:24;4.10;;;2.17;;
20004;SDS011;69160;45.498;-73.582;2023-04-22T13:51:51;6.07;;;2.10;;
20004;SDS011;69160;45.498;-73.582;2023-04-22T13:54:17;20.03;;;4.17;;
20004;SDS011;69160;45.498;-73.582;2023-04-22T13:56:43;7.03;;;2.90;;
20004;SDS011;69160;45.498;-73.582;2023-04-22T13:59:10;8.97;;;3.40;;
20004;SDS011;69160;45.498;-73.582;2023-04-22T14:01:36;13.07;;;3.13;;
20004;SDS011;69160;45.498;-73.582;2023-04-22T14:04:02;10.80;;;3.00;;
20004;SDS011;69160;45.498;-73.582;2023-04-22T14:06:29;8.33;;;2.30;;
20004;SDS011;69160;45.498;-73.582;2023-04-22T14:08:55;7.90;;;3.00;;
20004;SDS011;69160;45.498;-73.582;2023-04-22T14:11:21;11.27;;;2.40;;
20004;SDS011;69160;45.498;-73.582;2023-04-22T14:13:48;5.37;;;2.30;;
20004;SDS011;69160;45.498;-73.582;2023-04-22T14:16:14;3.13;;;1.70;;
20004;SDS011;69160;45.498;-73.582;2023-04-22T14:18:41;9.50;;;1.93;;
20004;SDS011;69160;45.498;-73.582;2023-04-22T14:21:10;3.67;;;1.80;;
20004;SDS011;69160;45.498;-73.582;2023-04-22T14:23:37;4.10;;;2.23;;
20004;SDS011;69160;45.498;-73.582;2023-04-22T14:26:06;6.50;;;1.80;;
20004;SDS011;69160;45.498;-73.582;2023-04-22T14:28:34;3.20;;;1.77;;
20004;SDS011;69160;45.498;-73.582;2023-04-22T14:31:01;4.53;;;2.07;;
20004;SDS011;69160;45.498;-73.582;2023-04-22T14:33:27;4.93;;;1.93;;
20004;SDS011;69160;45.498;-73.582;2023-04-22T14:35:53;2.30;;;1.63;;
20004;SDS011;69160;45.498;-73.582;2023-04-22T14:38:21;2.33;;;1.60;;